Time;durP1;ratioP1;P1;durP2;ratioP2;P2;SDS_P1;SDS_P2;PMS_P1;PMS_P2;Temp;Humidity;BMP_temperature;BMP_pressure;BME280_temperature;BME280_humidity;BME280_pressure;Samples;Min_cycle;Max_cycle;Signal;HPM_P1;HPM_P2
2021/07/11 00:00:18;;;;;;;58.47;2.57;;;17.20;75.80;;;;;;5072288;28;20884;-70
2021/07/11 00:02:45;;;;;;;58.50;2.97;;;17.20;75.80;;;;;;5071957;28;20478;-71
2021/07/11 00:05:15;;;;;;;58.47;2.80;;;17.20;75.90;;;;;;5062536;28;20492;-71
2021/07/11 00:07:42;;;;;;;58.60;2.70;;;17.20;76.70;;;;;;5051885;28;20555;-71
2021/07/11 00:10:10;;;;;;;59.67;3.80;;;17.20;78.30;;;;;;5051839;28;20546;-70
2021/07/11 00:12:39;;;;;;;58.13;2.70;;;17.20;79.10;;;;;;5051851;28;20487;-70
2021/07/11 00:15:08;;;;;;;58.37;3.00;;;17.20;79.90;;;;;;5051736;28;21063;-70
2021/07/11 00:17:36;;;;;;;58.10;2.60;;;17.10;80.10;;;;;;5051733;28;20533;-70
2021/07/11 00:20:03;;;;;;;58.37;2.57;;;17.00;78.90;;;;;;5051914;28;20512;-71
2021/07/11 00:22:30;;;;;;;58.17;2.60;;;17.00;78.30;;;;;;5051724;28;20505;-70
2021/07/11 00:24:57;;;;;;;58.90;3.00;;;16.90;76.90;;;;;;5051942;28;20471;-70
2021/07/11 00:27:24;;;;;;;58.27;2.70;;;16.70;75.00;;;;;;5052014;28;20519;-70
2021/07/11 00:29:52;;;;;;;58.30;2.80;;;16.70;74.40;;;;;;5052007;28;20902;-71
2021/07/11 00:32:19;;;;;;;58.93;3.20;;;16.60;72.00;;;;;;5051711;28;20545;-71
2021/07/11 00:34:46;;;;;;;58.23;2.60;;;16.50;72.50;;;;;;5051397;28;21144;-70
2021/07/11 00:37:13;;;;;;;58.70;2.80;;;16.40;71.60;;;;;;5050532;28;20532;-70
2021/07/11 00:39:40;;;;;;;58.37;2.53;;;16.30;71.40;;;;;;5070823;28;20533;-70
2021/07/11 00:42:07;;;;;;;58.50;3.20;;;16.30;74.20;;;;;;5071235;28;20885;-70
2021/07/11 00:44:35;;;;;;;58.60;2.80;;;16.20;77.30;;;;;;5071602;28;20696;-71
2021/07/11 00:47:03;;;;;;;58.40;2.57;;;16.20;80.10;;;;;;5071607;28;21003;-70
2021/07/11 00:49:30;;;;;;;58.37;2.80;;;16.20;81.50;;;;;;5071454;28;20444;-71
2021/07/11 00:51:57;;;;;;;58.67;2.60;;;16.10;82.40;;;;;;5071643;28;20452;-70
2021/07/11 00:54:24;;;;;;;58.50;2.70;;;16.10;83.80;;;;;;5072998;28;20935;-70
2021/07/11 00:56:51;;;;;;;58.37;2.60;;;16.00;83.60;;;;;;5075664;28;20899;-70
2021/07/11 00:59:19;;;;;;;58.50;2.70;;;16.00;84.10;;;;;;5075630;28;20541;-71
2021/07/11 01:01:52;;;;;;;58.50;2.70;;;16.00;85.50;;;;;;5074896;28;20535;-70
2021/07/11 01:04:27;;;;;;;58.40;2.67;;;16.00;85.80;;;;;;5075158;28;20575;-70
2021/07/11 01:06:58;;;;;;;58.73;3.00;;;15.90;86.20;;;;;;5068559;28;20458;-70
2021/07/11 01:09:28;;;;;;;58.47;2.63;;;15.90;88.30;;;;;;5054936;28;20945;-70
2021/07/11 01:12:01;;;;;;;58.90;3.00;;;15.90;90.10;;;;;;5055312;28;20955;-70
2021/07/11 01:14:30;;;;;;;58.47;2.90;;;15.90;90.80;;;;;;5054958;28;20902;-70
2021/07/11 01:16:59;;;;;;;58.50;2.53;;;15.90;91.50;;;;;;5054985;28;21006;-70
2021/07/11 01:19:40;;;;;;;58.70;3.57;;;15.90;91.90;;;;;;5055027;28;20451;-70
2021/07/11 01:22:12;;;;;;;58.23;2.70;;;15.90;92.60;;;;;;5054812;28;20479;-70
2021/07/11 01:24:46;;;;;;;58.17;2.57;;;15.80;92.60;;;;;;5054964;28;20508;-70
2021/07/11 01:27:16;;;;;;;58.30;2.70;;;15.80;92.00;;;;;;5055144;28;20450;-70
2021/07/11 01:29:43;;;;;;;58.20;2.70;;;15.80;91.20;;;;;;5054793;28;20460;-70
2021/07/11 01:32:10;;;;;;;58.30;2.70;;;15.80;91.10;;;;;;5054566;28;20459;-70
2021/07/11 01:34:38;;;;;;;58.33;2.60;;;15.70;91.00;;;;;;5054861;28;20465;-70
2021/07/11 01:37:05;;;;;;;58.37;2.50;;;15.70;91.10;;;;;;5054850;28;20551;-70
2021/07/11 01:39:33;;;;;;;58.27;2.70;;;15.70;90.70;;;;;;5053338;28;20929;-70
2021/07/11 01:42:00;;;;;;;58.17;2.70;;;15.70;90.00;;;;;;5072549;28;20451;-70
2021/07/11 01:44:30;;;;;;;58.57;3.00;;;15.70;89.40;;;;;;5074770;28;20493;-70
2021/07/11 01:46:58;;;;;;;58.17;2.50;;;15.70;87.70;;;;;;5074343;28;20543;-70
2021/07/11 01:49:25;;;;;;;58.33;2.73;;;15.70;87.70;;;;;;5074578;28;20452;-70
2021/07/11 01:51:53;;;;;;;58.03;2.60;;;15.70;87.20;;;;;;5074584;28;20454;-70
2021/07/11 01:54:20;;;;;;;58.13;2.63;;;15.70;88.20;;;;;;5074461;28;20478;-70
2021/07/11 01:56:47;;;;;;;58.47;2.60;;;15.70;87.70;;;;;;5074806;28;20449;-70
2021/07/11 01:59:14;;;;;;;58.50;2.50;;;15.70;87.30;;;;;;5074647;28;20445;-70
2021/07/11 02:01:42;;;;;;;58.47;2.70;;;15.70;86.10;;;;;;5074288;28;20834;-70
2021/07/11 02:04:09;;;;;;;58.80;2.87;;;15.70;86.00;;;;;;5074318;28;20933;-70
2021/07/11 02:06:36;;;;;;;58.07;2.50;;;15.70;86.00;;;;;;5073332;28;20994;-70
2021/07/11 02:09:03;;;;;;;58.27;2.47;;;15.70;85.90;;;;;;5073409;28;20797;-70
2021/07/11 02:11:30;;;;;;;58.37;2.50;;;15.70;86.20;;;;;;5074223;28;20451;-70
2021/07/11 02:14:02;;;;;;;58.20;2.50;;;15.70;84.50;;;;;;5074696;28;20471;-70
2021/07/11 02:16:33;;;;;;;59.20;2.90;;;15.70;85.60;;;;;;5074678;28;20551;-70
2021/07/11 02:19:02;;;;;;;58.37;2.73;;;15.70;85.20;;;;;;5074273;28;20540;-69
2021/07/11 02:21:30;;;;;;;58.47;2.70;;;15.70;85.70;;;;;;5074484;28;20458;-69
2021/07/11 02:23:59;;;;;;;58.30;2.60;;;15.70;85.50;;;;;;5074556;28;20518;-69
2021/07/11 02:26:27;;;;;;;58.23;2.60;;;15.70;86.30;;;;;;5074509;28;20444;-69
2021/07/11 02:28:54;;;;;;;58.20;2.80;;;15.80;87.90;;;;;;5074259;28;20455;-69
2021/07/11 02:31:26;;;;;;;58.37;2.57;;;15.80;88.00;;;;;;5074311;28;20451;-69
2021/07/11 02:33:54;;;;;;;58.00;2.57;;;15.80;88.10;;;;;;5074281;28;20499;-69
2021/07/11 02:36:25;;;;;;;58.07;2.70;;;15.80;88.40;;;;;;5074250;28;20543;-69
2021/07/11 02:38:56;;;;;;;58.37;2.67;;;15.80;87.80;;;;;;5074214;28;20544;-69
2021/07/11 02:41:26;;;;;;;59.67;2.70;;;15.80;85.90;;;;;;5073571;28;20459;-69
2021/07/11 02:43:56;;;;;;;58.13;2.80;;;15.80;83.40;;;;;;5073700;28;20572;-69
2021/07/11 02:46:27;;;;;;;58.37;2.43;;;15.80;83.20;;;;;;5061497;28;20453;-69
2021/07/11 02:48:55;;;;;;;58.17;2.53;;;15.80;84.10;;;;;;5068268;28;20931;-69
2021/07/11 02:51:25;;;;;;;58.47;2.60;;;15.80;84.40;;;;;;5072900;28;20564;-69
2021/07/11 02:53:57;;;;;;;58.03;2.47;;;15.80;84.40;;;;;;5073623;28;20556;-69
2021/07/11 02:56:25;;;;;;;58.07;2.60;;;15.80;84.80;;;;;;5073320;28;20445;-69
2021/07/11 02:58:56;;;;;;;58.50;2.50;;;15.80;80.60;;;;;;5073149;28;20449;-69
2021/07/11 03:01:25;;;;;;;58.27;2.60;;;15.80;78.30;;;;;;5073147;28;21400;-69
2021/07/11 03:03:54;;;;;;;58.27;2.60;;;15.70;78.40;;;;;;5072659;28;20570;-69
2021/07/11 03:06:22;;;;;;;58.07;2.57;;;15.70;78.90;;;;;;5073163;28;20454;-69
2021/07/11 03:08:49;;;;;;;58.13;2.60;;;15.70;76.90;;;;;;5073087;28;20448;-69
2021/07/11 03:11:16;;;;;;;59.10;3.60;;;15.70;76.70;;;;;;5072786;28;20455;-69
2021/07/11 03:13:43;;;;;;;58.53;2.90;;;15.60;78.10;;;;;;5072839;28;20894;-69
2021/07/11 03:16:11;;;;;;;58.23;2.60;;;15.70;79.40;;;;;;5072559;28;20535;-69
2021/07/11 03:18:39;;;;;;;58.23;2.47;;;15.70;79.60;;;;;;5071411;28;20458;-69
2021/07/11 03:21:08;;;;;;;58.13;2.47;;;15.60;80.50;;;;;;5072625;28;20460;-69
2021/07/11 03:23:37;;;;;;;58.07;2.70;;;15.60;80.70;;;;;;5072186;28;20579;-69
2021/07/11 03:26:04;;;;;;;58.50;2.60;;;15.60;80.10;;;;;;5072477;28;20535;-69
2021/07/11 03:28:34;;;;;;;58.53;2.67;;;15.60;80.20;;;;;;5072857;28;20531;-69
2021/07/11 03:31:05;;;;;;;58.17;2.50;;;15.60;80.30;;;;;;5072590;28;20453;-69
2021/07/11 03:33:37;;;;;;;58.07;2.70;;;15.60;81.70;;;;;;5072201;28;20464;-69
2021/07/11 03:36:04;;;;;;;58.20;2.53;;;15.60;83.10;;;;;;5072306;28;20544;-69
2021/07/11 03:38:37;;;;;;;59.00;3.93;;;15.60;85.30;;;;;;5072643;28;20446;-69
2021/07/11 03:41:04;;;;;;;58.17;2.80;;;15.60;86.80;;;;;;5072602;28;20451;-69
2021/07/11 03:43:35;;;;;;;58.37;2.67;;;15.70;88.50;;;;;;5072079;28;20482;-69
2021/07/11 03:46:07;;;;;;;58.27;2.57;;;15.70;89.40;;;;;;5072372;28;20444;-69
2021/07/11 03:48:41;;;;;;;58.30;2.80;;;15.70;89.90;;;;;;5072240;28;20886;-69
2021/07/11 03:51:09;;;;;;;57.97;2.60;;;15.70;90.30;;;;;;5072394;28;20884;-69
2021/07/11 03:53:39;;;;;;;58.37;2.60;;;15.70;90.50;;;;;;5072195;28;20468;-69
2021/07/11 03:56:07;;;;;;;58.33;2.77;;;15.70;90.70;;;;;;5072298;28;20449;-69
2021/07/11 03:58:38;;;;;;;58.30;2.60;;;15.70;91.30;;;;;;5072265;28;20456;-69
2021/07/11 04:01:07;;;;;;;58.27;2.63;;;15.80;91.90;;;;;;5072596;28;20445;-69
2021/07/11 04:03:37;;;;;;;58.37;2.90;;;15.80;92.60;;;;;;5072110;28;20495;-69
2021/07/11 04:06:06;;;;;;;58.20;2.70;;;15.80;93.30;;;;;;5072122;28;20448;-69
2021/07/11 04:08:36;;;;;;;58.30;2.70;;;15.90;93.50;;;;;;5072489;28;20499;-69
2021/07/11 04:11:05;;;;;;;58.30;2.90;;;15.90;94.00;;;;;;5072557;28;20540;-69
2021/07/11 04:13:34;;;;;;;58.40;2.70;;;15.90;94.60;;;;;;5072305;28;20467;-69
2021/07/11 04:16:04;;;;;;;58.37;2.67;;;15.90;95.50;;;;;;5072622;28;20457;-69
2021/07/11 04:18:37;;;;;;;58.27;2.70;;;16.00;96.20;;;;;;5072554;28;20457;-69
2021/07/11 04:21:04;;;;;;;58.07;2.80;;;16.00;96.20;;;;;;5072855;28;20451;-69
2021/07/11 04:23:33;;;;;;;58.40;2.70;;;16.00;96.20;;;;;;5072294;28;20498;-69
2021/07/11 04:26:01;;;;;;;58.23;2.70;;;16.10;96.00;;;;;;5072325;28;20457;-69
2021/07/11 04:28:32;;;;;;;58.47;2.90;;;16.10;96.10;;;;;;5072047;28;20451;-69
2021/07/11 04:31:01;;;;;;;58.20;3.00;;;16.10;96.00;;;;;;5072567;28;20449;-69
2021/07/11 04:33:28;;;;;;;58.03;2.50;;;16.20;96.10;;;;;;5072466;28;20472;-69
2021/07/11 04:35:55;;;;;;;58.40;2.70;;;16.20;96.10;;;;;;5072490;28;20528;-69
2021/07/11 04:38:22;;;;;;;57.97;2.67;;;16.30;96.30;;;;;;5072474;28;20850;-69
2021/07/11 04:40:49;;;;;;;58.37;2.60;;;16.30;96.60;;;;;;5072323;28;20456;-69
2021/07/11 04:43:17;;;;;;;58.40;2.70;;;16.30;96.60;;;;;;5071751;28;21018;-69
2021/07/11 04:45:46;;;;;;;58.40;2.80;;;16.40;96.40;;;;;;5072901;28;20457;-69
2021/07/11 04:48:14;;;;;;;58.10;2.57;;;16.40;96.20;;;;;;5072436;28;20460;-69
2021/07/11 04:50:42;;;;;;;58.37;2.90;;;16.50;95.60;;;;;;5072329;28;21087;-69
2021/07/11 04:53:09;;;;;;;58.27;2.80;;;16.50;95.20;;;;;;5072692;28;20541;-69
2021/07/11 04:55:36;;;;;;;58.47;2.70;;;16.60;95.00;;;;;;5072194;28;20941;-69
2021/07/11 04:58:03;;;;;;;58.30;2.60;;;16.60;94.60;;;;;;5072122;28;20961;-69
2021/07/11 05:00:30;;;;;;;57.97;2.70;;;16.70;94.50;;;;;;5072465;28;20450;-70
2021/07/11 05:02:58;;;;;;;57.67;3.00;;;16.70;94.00;;;;;;5072029;28;20488;-69
2021/07/11 05:05:25;;;;;;;57.97;2.70;;;16.70;93.80;;;;;;5072259;28;20496;-68
2021/07/11 05:07:52;;;;;;;58.27;2.70;;;16.80;93.80;;;;;;5071851;28;20544;-69
2021/07/11 05:10:19;;;;;;;58.90;3.10;;;16.80;93.70;;;;;;5072258;28;20446;-70
2021/07/11 05:12:47;;;;;;;58.10;2.67;;;16.80;93.50;;;;;;5071793;28;20449;-69
2021/07/11 05:15:14;;;;;;;58.23;2.60;;;16.80;93.30;;;;;;5072113;28;21028;-69
2021/07/11 05:17:41;;;;;;;58.07;2.73;;;16.80;93.10;;;;;;5071898;28;20457;-69
2021/07/11 05:20:10;;;;;;;58.20;2.73;;;16.80;92.90;;;;;;5072275;28;20450;-69
2021/07/11 05:22:37;;;;;;;58.13;2.70;;;16.90;92.80;;;;;;5071675;28;20461;-69
2021/07/11 05:25:04;;;;;;;58.17;2.67;;;16.80;92.70;;;;;;5071859;28;20873;-69
2021/07/11 05:27:32;;;;;;;57.90;2.70;;;16.90;92.60;;;;;;5072010;28;20541;-69
2021/07/11 05:29:58;;;;;;;58.27;2.80;;;16.90;92.30;;;;;;5072564;28;20545;-69
2021/07/11 05:32:25;;;;;;;58.30;2.80;;;17.00;92.00;;;;;;5071513;28;20490;-69
2021/07/11 05:34:52;;;;;;;58.03;2.70;;;17.00;92.00;;;;;;5071711;28;20557;-69
2021/07/11 05:37:20;;;;;;;57.80;2.60;;;16.90;92.00;;;;;;5071972;28;20901;-68
2021/07/11 05:39:47;;;;;;;58.13;2.60;;;17.00;92.00;;;;;;5071948;28;20482;-69
2021/07/11 05:42:14;;;;;;;58.07;2.50;;;17.00;91.70;;;;;;5073926;28;20446;-69
2021/07/11 05:44:41;;;;;;;58.33;2.70;;;17.00;91.30;;;;;;5075353;28;20490;-69
2021/07/11 05:47:08;;;;;;;58.13;2.80;;;17.00;91.10;;;;;;5075331;28;20973;-69
2021/07/11 05:49:35;;;;;;;58.30;2.73;;;16.90;90.70;;;;;;5075134;28;20472;-69
2021/07/11 05:52:03;;;;;;;57.87;2.40;;;16.90;90.50;;;;;;5076105;28;20947;-69
2021/07/11 05:54:31;;;;;;;58.07;2.50;;;16.90;90.70;;;;;;5075090;28;20478;-69
2021/07/11 05:56:58;;;;;;;58.10;2.50;;;17.00;90.70;;;;;;5075074;28;20958;-69
2021/07/11 05:59:25;;;;;;;57.93;2.60;;;16.90;90.60;;;;;;5074990;28;20538;-69
2021/07/11 06:01:51;;;;;;;58.30;2.63;;;16.90;90.60;;;;;;5074412;28;20571;-70
2021/07/11 06:04:18;;;;;;;58.07;2.47;;;17.00;90.60;;;;;;5074341;28;20918;-69
2021/07/11 06:06:45;;;;;;;58.37;2.60;;;16.90;90.70;;;;;;5074994;28;20450;-69
2021/07/11 06:09:12;;;;;;;57.93;2.70;;;17.00;91.10;;;;;;5074829;28;20588;-69
2021/07/11 06:11:40;;;;;;;58.17;2.70;;;17.00;91.00;;;;;;5074545;28;20543;-69
2021/07/11 06:14:08;;;;;;;58.37;3.00;;;17.00;90.30;;;;;;5074565;28;20561;-69
2021/07/11 06:16:35;;;;;;;58.47;2.50;;;17.00;89.80;;;;;;5074425;28;21013;-69
2021/07/11 06:19:02;;;;;;;57.63;2.43;;;17.10;89.70;;;;;;5074620;28;20545;-69
2021/07/11 06:21:29;;;;;;;58.07;2.70;;;17.10;90.00;;;;;;5074111;28;20445;-69
2021/07/11 06:23:56;;;;;;;57.97;2.50;;;17.10;89.50;;;;;;5074564;28;20494;-69
2021/07/11 06:26:22;;;;;;;58.17;2.60;;;17.20;89.80;;;;;;5074496;28;20544;-69
2021/07/11 06:28:50;;;;;;;59.00;2.80;;;17.30;89.70;;;;;;5074318;28;20456;-69
2021/07/11 06:31:17;;;;;;;58.07;2.53;;;17.20;88.30;;;;;;5074217;28;20848;-69
2021/07/11 06:33:44;;;;;;;58.03;2.50;;;17.20;87.70;;;;;;5073887;28;20477;-69
2021/07/11 06:36:11;;;;;;;58.20;2.83;;;17.20;88.20;;;;;;5074278;28;20451;-69
2021/07/11 06:38:38;;;;;;;57.77;2.50;;;17.00;88.10;;;;;;5074182;28;20462;-69
2021/07/11 06:41:05;;;;;;;58.20;2.50;;;17.00;86.90;;;;;;5074019;28;20489;-69
2021/07/11 06:43:31;;;;;;;58.07;2.70;;;17.10;83.10;;;;;;5073519;28;20465;-69
2021/07/11 06:46:00;;;;;;;57.93;2.50;;;17.20;68.80;;;;;;5073846;28;21026;-69
2021/07/11 06:48:27;;;;;;;57.77;2.70;;;17.40;64.80;;;;;;5073781;28;20541;-69
2021/07/11 06:50:55;;;;;;;58.07;2.60;;;17.60;63.60;;;;;;5073862;28;20447;-68
2021/07/11 06:53:22;;;;;;;58.07;2.57;;;17.70;1.00;;;;;;5073148;28;20504;-69
2021/07/11 06:55:48;;;;;;;58.33;2.57;;;17.70;1.00;;;;;;5073792;28;20525;-69
2021/07/11 06:58:15;;;;;;;57.90;2.50;;;17.60;1.00;;;;;;5073526;28;20451;-69
2021/07/11 07:00:42;;;;;;;58.03;2.30;;;17.60;1.00;;;;;;5073555;28;20493;-70
2021/07/11 07:03:10;;;;;;;58.27;2.57;;;17.70;1.00;;;;;;5073191;28;21006;-69
2021/07/11 07:05:37;;;;;;;57.97;2.50;;;17.60;1.00;;;;;;5073539;28;20482;-69
2021/07/11 07:08:05;;;;;;;58.37;3.13;;;17.60;1.00;;;;;;5072886;28;20545;-69
2021/07/11 07:10:31;;;;;;;57.93;2.70;;;17.60;1.00;;;;;;5072976;28;20447;-69
2021/07/11 07:12:58;;;;;;;58.07;2.50;;;17.50;1.00;;;;;;5072692;28;20454;-70
2021/07/11 07:15:25;;;;;;;57.87;2.50;;;17.40;1.00;;;;;;5072967;28;20465;-69
2021/07/11 07:17:52;;;;;;;58.17;2.60;;;17.40;1.00;;;;;;5072999;28;20541;-69
2021/07/11 07:20:20;;;;;;;58.17;2.60;;;17.40;1.00;;;;;;5073230;28;20549;-70
2021/07/11 07:22:47;;;;;;;58.00;2.80;;;17.30;1.00;;;;;;5072808;28;20542;-69
2021/07/11 07:25:16;;;;;;;58.07;2.30;;;17.40;1.00;;;;;;5072728;28;20573;-70
2021/07/11 07:27:44;;;;;;;58.07;2.53;;;17.40;1.00;;;;;;5073171;28;20803;-70
2021/07/11 07:30:15;;;;;;;59.10;3.10;;;17.40;1.00;;;;;;5072570;28;20458;-69
2021/07/11 07:32:42;;;;;;;58.10;2.57;;;17.40;1.00;;;;;;5072387;28;20550;-70
2021/07/11 07:35:10;;;;;;;58.00;2.60;;;17.50;1.00;;;;;;5072463;28;20469;-70
2021/07/11 07:37:38;;;;;;;58.07;2.23;;;17.60;1.00;;;;;;5072450;28;20447;-69
2021/07/11 07:40:06;;;;;;;57.97;2.30;;;17.70;1.00;;;;;;5072470;28;21023;-69
2021/07/11 07:42:34;;;;;;;58.27;3.30;;;17.70;1.00;;;;;;5072164;28;20443;-70
2021/07/11 07:45:01;;;;;;;57.90;2.50;;;17.70;1.00;;;;;;5072370;28;20574;-70
2021/07/11 07:47:28;;;;;;;57.93;2.53;;;17.70;1.00;;;;;;5072527;28;20525;-70
2021/07/11 07:49:55;;;;;;;58.30;2.60;;;17.80;1.00;;;;;;5072364;28;20485;-69
2021/07/11 07:52:22;;;;;;;58.03;2.30;;;18.00;1.00;;;;;;5071895;28;20541;-69
2021/07/11 07:54:50;;;;;;;57.90;2.40;;;18.20;1.00;;;;;;5072216;28;20553;-69
2021/07/11 07:57:17;;;;;;;57.77;2.30;;;18.40;1.00;;;;;;5072547;28;20830;-70
2021/07/11 07:59:44;;;;;;;57.90;2.40;;;18.60;1.00;;;;;;5072282;28;20531;-70
2021/07/11 08:02:10;;;;;;;57.83;2.10;;;18.60;1.00;;;;;;5071837;28;20473;-70
2021/07/11 08:04:37;;;;;;;58.27;3.07;;;18.70;1.00;;;;;;5071199;28;20495;-70
2021/07/11 08:07:04;;;;;;;57.77;2.70;;;18.70;1.00;;;;;;5071909;28;20947;-70
2021/07/11 08:09:31;;;;;;;57.97;2.40;;;18.80;1.00;;;;;;5072141;28;20478;-70
2021/07/11 08:11:59;;;;;;;59.20;3.57;;;19.00;1.00;;;;;;5071743;28;20543;-70
2021/07/11 08:14:26;;;;;;;58.20;2.40;;;19.20;1.00;;;;;;5071883;28;20465;-70
2021/07/11 08:16:53;;;;;;;58.03;2.30;;;19.30;1.00;;;;;;5071930;28;20539;-69
2021/07/11 08:19:20;;;;;;;57.87;2.37;;;19.40;1.00;;;;;;5071887;28;20534;-70
2021/07/11 08:21:47;;;;;;;58.40;2.90;;;19.30;1.00;;;;;;5071504;28;20527;-69
2021/07/11 08:24:14;;;;;;;57.90;2.40;;;19.20;1.00;;;;;;5071922;28;20502;-70
2021/07/11 08:26:40;;;;;;;57.63;2.17;;;19.10;1.00;;;;;;5071903;28;20489;-70
2021/07/11 08:29:09;;;;;;;57.83;2.17;;;19.10;1.00;;;;;;5071876;28;20536;-69
2021/07/11 08:31:36;;;;;;;57.40;2.30;;;19.10;1.00;;;;;;5072066;28;20529;-69
2021/07/11 08:34:04;;;;;;;57.87;2.20;;;19.10;1.00;;;;;;5071549;28;20481;-69
2021/07/11 08:36:31;;;;;;;58.00;2.70;;;19.20;1.00;;;;;;5071601;28;20947;-70
2021/07/11 08:38:58;;;;;;;57.97;2.30;;;19.20;1.00;;;;;;5072058;28;20866;-70
2021/07/11 08:41:26;;;;;;;57.93;2.60;;;19.30;1.00;;;;;;5071683;28;20444;-69
2021/07/11 08:43:53;;;;;;;57.50;2.50;;;19.30;1.00;;;;;;5071605;28;20474;-69
2021/07/11 08:46:21;;;;;;;57.67;2.37;;;19.30;1.00;;;;;;5071988;28;20482;-69
2021/07/11 08:48:49;;;;;;;57.40;2.10;;;19.30;1.00;;;;;;5071520;28;20535;-69
2021/07/11 08:51:17;;;;;;;57.67;2.47;;;19.30;1.00;;;;;;5071685;28;20821;-69
2021/07/11 08:53:45;;;;;;;57.63;3.17;;;19.40;1.00;;;;;;5071377;28;20971;-69
2021/07/11 08:56:17;;;;;;;57.80;2.10;;;19.50;1.00;;;;;;5071542;28;20449;-70
2021/07/11 08:58:48;;;;;;;57.30;2.20;;;19.60;1.00;;;;;;5071609;28;20445;-70
2021/07/11 09:01:14;;;;;;;57.83;2.10;;;19.70;1.00;;;;;;5071353;28;20883;-68
2021/07/11 09:03:42;;;;;;;57.93;2.20;;;19.80;1.00;;;;;;5070984;28;20564;-69
2021/07/11 09:06:09;;;;;;;57.50;2.20;;;19.90;1.00;;;;;;5071340;28;20495;-69
2021/07/11 09:08:43;;;;;;;57.57;2.57;;;19.90;1.00;;;;;;5071272;28;20545;-69
2021/07/11 09:11:16;;;;;;;58.20;2.53;;;20.10;1.00;;;;;;5071415;28;20486;-69
2021/07/11 09:13:43;;;;;;;57.70;2.40;;;20.50;1.00;;;;;;5070935;28;20852;-69
2021/07/11 09:16:09;;;;;;;57.60;2.50;;;20.80;1.00;;;;;;5074196;28;20445;-69
2021/07/11 09:18:37;;;;;;;58.00;3.07;;;20.90;1.00;;;;;;5075226;28;20817;-69
2021/07/11 09:21:07;;;;;;;57.87;2.40;;;20.90;1.00;;;;;;5075077;28;20443;-69
2021/07/11 09:23:34;;;;;;;57.60;2.30;;;20.80;1.00;;;;;;5062239;28;20470;-69
2021/07/11 09:26:05;;;;;;;58.10;2.40;;;20.70;1.00;;;;;;5068742;28;20568;-69
2021/07/11 09:28:33;;;;;;;57.37;2.10;;;20.70;1.00;;;;;;5074992;28;20459;-67
2021/07/11 09:31:06;;;;;;;57.97;2.30;;;20.70;1.00;;;;;;5074888;28;20451;-67
2021/07/11 09:33:35;;;;;;;58.37;3.30;;;20.70;1.00;;;;;;5074539;28;20466;-68
2021/07/11 09:36:09;;;;;;;57.87;2.20;;;20.70;1.00;;;;;;5074686;28;20538;-67
2021/07/11 09:38:36;;;;;;;57.77;2.30;;;20.70;1.00;;;;;;5069540;28;20451;-67
2021/07/11 09:41:15;;;;;;;58.03;2.30;;;20.70;1.00;;;;;;5061050;28;20477;-67
2021/07/11 09:43:42;;;;;;;58.20;2.20;;;20.60;1.00;;;;;;5074487;28;20475;-67
2021/07/11 09:46:13;;;;;;;57.77;2.50;;;20.60;1.00;;;;;;5074529;28;20571;-67
2021/07/11 09:48:40;;;;;;;57.63;2.50;;;20.70;1.00;;;;;;5074465;28;20540;-67
2021/07/11 09:51:20;;;;;;;58.00;2.67;;;20.90;1.00;;;;;;5074158;28;20480;-67
2021/07/11 09:53:48;;;;;;;58.00;2.20;;;21.10;1.00;;;;;;5074133;28;20866;-67
2021/07/11 09:56:35;;;;;;;58.20;2.17;;;21.30;1.00;;;;;;5074428;28;20450;-67
2021/07/11 09:59:03;;;;;;;57.77;2.10;;;21.40;1.00;;;;;;5074248;28;20447;-67
2021/07/11 10:01:30;;;;;;;58.17;2.50;;;21.40;1.00;;;;;;5073783;28;20454;-67
2021/07/11 10:03:58;;;;;;;57.83;2.30;;;21.60;1.00;;;;;;5074142;28;20483;-67
2021/07/11 10:06:27;;;;;;;58.10;2.30;;;21.60;1.00;;;;;;5074268;28;20494;-67
2021/07/11 10:08:54;;;;;;;57.73;2.40;;;21.70;1.00;;;;;;5074080;28;20542;-67
2021/07/11 10:11:22;;;;;;;57.57;2.40;;;21.80;1.00;;;;;;5074002;28;20451;-67
2021/07/11 10:13:49;;;;;;;57.33;2.40;;;22.00;1.00;;;;;;5073831;28;20554;-68
2021/07/11 10:16:17;;;;;;;57.27;2.40;;;22.20;1.00;;;;;;5072654;28;20447;-67
2021/07/11 10:18:45;;;;;;;57.87;2.50;;;22.40;1.00;;;;;;5053862;28;20937;-68
2021/07/11 10:21:13;;;;;;;57.87;2.23;;;22.60;1.00;;;;;;5053690;28;21011;-67
2021/07/11 10:23:42;;;;;;;57.57;2.20;;;22.80;1.00;;;;;;5053828;28;20465;-68
2021/07/11 10:26:12;;;;;;;57.97;2.67;;;22.90;1.00;;;;;;5053286;28;20999;-67
2021/07/11 10:28:41;;;;;;;57.83;2.20;;;23.00;1.00;;;;;;5053745;28;20448;-67
2021/07/11 10:31:19;;;;;;;57.90;2.40;;;23.10;1.00;;;;;;5053605;28;20541;-67
2021/07/11 10:33:47;;;;;;;58.47;2.50;;;23.40;1.00;;;;;;5053439;28;21055;-68
2021/07/11 10:36:14;;;;;;;57.87;2.17;;;23.60;1.00;;;;;;5053960;28;20543;-68
2021/07/11 10:38:52;;;;;;;57.63;2.40;;;23.90;1.00;;;;;;5053623;28;20453;-67
2021/07/11 10:41:21;;;;;;;57.57;2.40;;;24.10;1.00;;;;;;5053529;28;20552;-68
2021/07/11 10:44:01;;;;;;;57.53;2.07;;;24.40;1.00;;;;;;5053484;28;20500;-69
2021/07/11 10:46:32;;;;;;;57.93;2.10;;;25.40;1.00;;;;;;5061533;28;20509;-68
2021/07/11 10:49:10;;;;;;;57.77;2.20;;;25.90;1.00;;;;;;5060458;28;20824;-68
2021/07/11 10:51:45;;;;;;;57.60;2.20;;;26.30;1.00;;;;;;5053023;28;20454;-67
2021/07/11 10:54:26;;;;;;;57.57;2.10;;;27.00;1.00;;;;;;5053295;28;21010;-67
2021/07/11 10:56:53;;;;;;;57.97;2.27;;;26.70;1.00;;;;;;5053150;28;20537;-67
2021/07/11 10:59:32;;;;;;;58.00;2.40;;;26.30;1.00;;;;;;5052111;28;20451;-67
2021/07/11 11:02:01;;;;;;;57.90;2.30;;;25.90;1.00;;;;;;5052700;28;20543;-67
2021/07/11 11:04:28;;;;;;;57.53;2.20;;;25.60;1.00;;;;;;5052805;28;20572;-67
2021/07/11 11:06:55;;;;;;;57.77;2.20;;;25.40;1.00;;;;;;5053145;28;20488;-67
2021/07/11 11:09:42;;;;;;;57.57;2.10;;;25.40;1.00;;;;;;5052903;28;20449;-67
2021/07/11 11:12:23;;;;;;;58.00;2.90;;;25.30;1.00;;;;;;5052645;28;20452;-67
2021/07/11 11:14:55;;;;;;;57.90;2.30;;;25.40;1.00;;;;;;5052900;28;20482;-68
2021/07/11 11:17:30;;;;;;;57.57;2.10;;;26.00;1.00;;;;;;5060912;28;20470;-68
2021/07/11 11:20:00;;;;;;;58.00;2.40;;;26.50;1.00;;;;;;5072764;28;20447;-68
2021/07/11 11:22:27;;;;;;;57.37;1.87;;;26.70;1.00;;;;;;5072332;28;20450;-68
2021/07/11 11:24:55;;;;;;;57.47;2.00;;;26.40;1.00;;;;;;5072521;28;20469;-68
2021/07/11 11:27:36;;;;;;;57.80;2.10;;;26.00;1.00;;;;;;5072621;28;20484;-68
2021/07/11 11:30:11;;;;;;;57.90;2.10;;;25.50;1.00;;;;;;5072651;28;20451;-68
2021/07/11 11:32:38;;;;;;;57.87;1.90;;;24.80;1.00;;;;;;5072419;28;20533;-68
2021/07/11 11:35:06;;;;;;;57.87;2.40;;;24.30;1.00;;;;;;5072675;28;20467;-68
2021/07/11 11:37:33;;;;;;;58.07;2.50;;;24.10;1.00;;;;;;5072240;28;20443;-68
2021/07/11 11:40:05;;;;;;;59.47;2.77;;;23.90;1.00;;;;;;5072641;28;20537;-68
2021/07/11 11:42:32;;;;;;;58.07;2.20;;;23.80;1.00;;;;;;5072250;28;20969;-68
2021/07/11 11:45:07;;;;;;;57.57;2.10;;;23.80;1.00;;;;;;5072071;28;20473;-68
2021/07/11 11:47:34;;;;;;;57.80;2.33;;;23.80;1.00;;;;;;5068353;28;21770;-68
2021/07/11 11:50:14;;;;;;;57.27;2.40;;;23.80;1.00;;;;;;5051992;28;20556;-68
2021/07/11 11:52:41;;;;;;;57.77;2.37;;;23.90;1.00;;;;;;5052042;28;20455;-68
2021/07/11 11:55:11;;;;;;;58.93;2.60;;;24.10;1.00;;;;;;5052211;28;21031;-68
2021/07/11 11:57:39;;;;;;;57.60;2.47;;;24.20;1.00;;;;;;5051893;28;20440;-68
2021/07/11 12:00:13;;;;;;;57.73;2.30;;;24.20;1.00;;;;;;5051702;28;20456;-68
2021/07/11 12:02:40;;;;;;;58.23;2.57;;;24.30;1.00;;;;;;5050906;28;20475;-67
2021/07/11 12:05:12;;;;;;;58.10;2.60;;;24.30;1.00;;;;;;5051928;28;21015;-67
2021/07/11 12:07:39;;;;;;;57.67;2.20;;;24.40;1.00;;;;;;5051884;28;20575;-67
2021/07/11 12:10:14;;;;;;;57.60;2.10;;;24.60;1.00;;;;;;5051939;28;20515;-67
2021/07/11 12:12:41;;;;;;;57.33;2.00;;;24.60;1.00;;;;;;5051387;28;20444;-67
2021/07/11 12:15:09;;;;;;;57.57;2.10;;;24.70;1.00;;;;;;5051676;28;20476;-68
2021/07/11 12:17:36;;;;;;;57.67;2.10;;;24.90;1.00;;;;;;5051662;28;20447;-68
2021/07/11 12:20:04;;;;;;;57.60;2.00;;;25.10;1.00;;;;;;5064956;28;20942;-70
2021/07/11 12:22:33;;;;;;;58.20;2.50;;;25.40;1.00;;;;;;5071424;28;20457;-70
2021/07/11 12:25:06;;;;;;;57.33;1.80;;;25.70;1.00;;;;;;5071694;28;20873;-70
2021/07/11 12:27:36;;;;;;;57.67;2.00;;;26.10;1.00;;;;;;5071566;28;20994;-70
2021/07/11 12:30:07;;;;;;;57.57;2.00;;;26.30;1.00;;;;;;5071864;28;20474;-70
2021/07/11 12:32:41;;;;;;;57.40;2.00;;;26.60;1.00;;;;;;5071352;28;20897;-69
2021/07/11 12:35:09;;;;;;;57.57;2.00;;;26.80;1.00;;;;;;5071820;28;20836;-69
2021/07/11 12:37:36;;;;;;;57.80;2.13;;;27.00;1.00;;;;;;5071745;28;20446;-69
2021/07/11 12:40:04;;;;;;;57.57;2.00;;;27.10;1.00;;;;;;5071494;28;20448;-70
2021/07/11 12:42:30;;;;;;;57.53;2.03;;;27.00;1.00;;;;;;5071466;28;20447;-70
2021/07/11 12:44:59;;;;;;;57.53;2.10;;;26.70;1.00;;;;;;5071455;28;20559;-70
2021/07/11 12:47:26;;;;;;;57.57;2.13;;;26.40;1.00;;;;;;5071473;28;20485;-70